Pelsall, United Kingdom
Current Conditions -  °F | °C
As of 5:50 PM on Thursday 30 Oct 2014 (Local Time) from EGBB Reporting Station
Overcast Overcast  
Wind Chill: 61°   Ceiling: 1700
Heat Index: 61°   Visibility: 6mi
Dew Point: 57°   Wind: 7mph
Humidity: 88%   Direction: 140°SE
Pressure: 30"   Gusts: NA
Location:  52.63°N, 1.97°W
Report Text: EGBB 301750Z 14006KT 9000 BKN017 OVC022 16/14 Q1016
Loading
Personal Weather Stations






























Interactive Weather Map
Tropical Storm Tracking
New forecast layout! Learn more

10-Day Weather Forecast

Advertisements
Track Severe Weather on mobile